Time;durP1;ratioP1;P1;durP2;ratioP2;P2;SDS_P1;SDS_P2;PMS_P1;PMS_P2;Temp;Humidity;BMP_temperature;BMP_pressure;BME280_temperature;BME280_humidity;BME280_pressure;Samples;Min_cycle;Max_cycle;Signal;HPM_P1;HPM_P2
2021/12/15 00:00:20;;;;;;;57.80;38.42;;;;;;;7.52;100.00;102888.63;5012169;28;20438;-60
2021/12/15 00:02:48;;;;;;;56.90;39.75;;;;;;;7.50;100.00;102890.19;5012391;28;20482;-62
2021/12/15 00:05:21;;;;;;;57.47;39.13;;;;;;;7.50;100.00;102880.75;5012255;28;20065;-62
2021/12/15 00:07:47;;;;;;;59.05;40.45;;;;;;;7.48;100.00;102887.50;5011502;28;20045;-62
2021/12/15 00:10:12;;;;;;;65.60;42.33;;;;;;;7.45;100.00;102880.41;5010339;28;20450;-62
2021/12/15 00:12:38;;;;;;;66.13;41.55;;;;;;;7.42;100.00;102877.59;5011726;28;20471;-62
2021/12/15 00:15:04;;;;;;;68.47;42.10;;;;;;;7.40;100.00;102873.97;5010294;28;20117;-63
2021/12/15 00:17:30;;;;;;;70.25;42.83;;;;;;;7.41;100.00;102875.78;5011660;28;20037;-62
2021/12/15 00:19:55;;;;;;;66.25;43.17;;;;;;;7.41;100.00;102874.88;5011692;28;20129;-62
2021/12/15 00:22:21;;;;;;;69.55;43.05;;;;;;;7.40;100.00;102873.06;5010239;28;20103;-62
2021/12/15 00:24:46;;;;;;;66.03;42.63;;;;;;;7.40;100.00;102876.56;5011017;28;20034;-62
2021/12/15 00:27:12;;;;;;;69.53;43.33;;;;;;;7.38;100.00;102869.47;5011703;28;20018;-62
2021/12/15 00:29:37;;;;;;;73.07;43.78;;;;;;;7.37;100.00;102868.59;5011188;28;20037;-63
2021/12/15 00:32:04;;;;;;;70.95;44.40;;;;;;;7.38;100.00;102870.38;5011438;28;20457;-63
2021/12/15 00:34:33;;;;;;;75.78;44.08;;;;;;;7.39;100.00;102872.19;5010683;28;20045;-62
2021/12/15 00:36:58;;;;;;;71.80;43.70;;;;;;;7.38;100.00;102875.53;5010531;28;20030;-62
2021/12/15 00:39:25;;;;;;;66.13;42.42;;;;;;;7.36;100.00;102868.47;5010916;28;20133;-62
2021/12/15 00:41:51;;;;;;;73.97;44.42;;;;;;;7.37;100.00;102868.59;5010826;28;20038;-62
2021/12/15 00:44:16;;;;;;;69.82;43.60;;;;;;;7.37;100.00;102868.59;5011178;28;20055;-62
2021/12/15 00:46:43;;;;;;;73.75;45.05;;;;;;;7.38;100.00;102865.22;5010872;28;20076;-62
2021/12/15 00:49:09;;;;;;;65.38;41.88;;;;;;;7.39;100.00;102867.03;5011181;28;20399;-62
2021/12/15 00:51:37;;;;;;;66.90;43.05;;;;;;;7.41;100.00;102870.59;5004582;28;20045;-63
2021/12/15 00:54:04;;;;;;;70.25;44.03;;;;;;;7.38;100.00;102870.38;5009192;28;20052;-62
2021/12/15 00:56:30;;;;;;;69.95;43.45;;;;;;;7.39;100.00;102863.56;5011019;28;20500;-62
2021/12/15 00:58:55;;;;;;;70.68;43.35;;;;;;;7.37;100.00;102865.09;5010170;28;20034;-62
2021/12/15 01:01:23;;;;;;;70.90;43.15;;;;;;;7.37;100.00;102862.53;5010688;28;20042;-63
2021/12/15 01:03:48;;;;;;;75.63;43.47;;;;;;;7.36;100.00;102861.63;5010650;28;20037;-61
2021/12/15 01:06:17;;;;;;;68.10;42.55;;;;;;;7.38;100.00;102864.31;5009679;28;20030;-63
2021/12/15 01:08:51;;;;;;;68.90;41.08;;;;;;;7.36;100.00;102869.34;5009151;28;20037;-63
2021/12/15 01:11:32;;;;;;;71.47;44.40;;;;;;;7.36;100.00;102879.66;5009728;28;20029;-63
2021/12/15 01:19:55;;;;;;;68.15;42.50;;;;;;;7.36;100.00;102877.09;4988052;28;20042;-63
2021/12/15 01:22:35;;;;;;;69.43;42.92;;;;;;;7.36;100.00;102879.66;4987754;28;20454;-61
2021/12/15 01:25:10;;;;;;;64.85;42.08;;;;;;;7.36;100.00;102884.84;4987740;28;20037;-63
2021/12/15 01:27:35;;;;;;;71.30;43.83;;;;;;;7.34;100.00;102881.22;4987619;28;20060;-62
2021/12/15 01:30:02;;;;;;;68.82;42.10;;;;;;;7.33;100.00;102872.63;4988002;28;20402;-62
2021/12/15 01:32:27;;;;;;;64.68;41.50;;;;;;;7.32;100.00;102875.06;4987647;28;20038;-62
2021/12/15 01:34:53;;;;;;;68.82;42.85;;;;;;;7.33;100.00;102879.44;4987689;28;20038;-62
2021/12/15 01:37:18;;;;;;;68.35;42.25;;;;;;;7.32;100.00;102881.13;4987798;28;20531;-62
2021/12/15 01:39:45;;;;;;;72.63;42.40;;;;;;;7.33;100.00;102877.78;4987077;28;20050;-61
2021/12/15 01:42:11;;;;;;;69.95;41.15;;;;;;;7.35;100.00;102867.56;4987787;28;20097;-62
2021/12/15 01:47:22;;;;;;;70.05;41.58;;;;;;;7.33;100.00;102875.19;4986775;28;20096;-63
2021/12/15 01:49:50;;;;;;;65.45;40.50;;;;;;;7.35;100.00;102880.47;4987583;28;20041;-62
2021/12/15 01:52:26;;;;;;;69.35;41.60;;;;;;;7.35;100.00;102872.72;4987593;28;20483;-61
2021/12/15 01:54:56;;;;;;;70.63;43.20;;;;;;;7.32;100.00;102875.94;5007271;28;20050;-63
2021/12/15 01:57:24;;;;;;;72.97;42.35;;;;;;;7.31;100.00;102879.31;5009483;28;20042;-62
2021/12/15 01:59:50;;;;;;;67.38;41.53;;;;;;;7.31;100.00;102878.41;5009805;28;20121;-62
2021/12/15 02:02:17;;;;;;;75.65;44.53;;;;;;;7.32;100.00;102883.69;5009795;28;20141;-62
2021/12/15 02:04:44;;;;;;;70.60;41.72;;;;;;;7.33;100.00;102887.19;5010008;28;20056;-62
2021/12/15 02:07:13;;;;;;;71.25;42.33;;;;;;;7.32;100.00;102890.56;5009340;28;20032;-61
2021/12/15 02:13:18;;;;;;;75.60;43.22;;;;;;;7.32;100.00;102899.16;5007682;28;20037;-62
2021/12/15 02:15:49;;;;;;;70.78;41.72;;;;;;;7.33;100.00;102898.41;5009548;28;20036;-62
2021/12/15 02:18:19;;;;;;;74.50;42.55;;;;;;;7.34;100.00;102894.13;5009626;28;20359;-62
2021/12/15 02:20:54;;;;;;;74.60;42.10;;;;;;;7.34;100.00;102899.28;5009768;28;20018;-62
2021/12/15 02:23:25;;;;;;;76.95;43.92;;;;;;;7.33;100.00;102898.41;5009375;28;20121;-63
2021/12/15 02:25:51;;;;;;;72.50;43.90;;;;;;;7.35;100.00;102901.09;5009576;28;20181;-63
2021/12/15 02:28:17;;;;;;;68.32;41.92;;;;;;;7.35;100.00;102906.25;5009605;28;20137;-62
2021/12/15 02:38:37;;;;;;;70.28;42.78;;;;;;;7.36;100.00;102896.84;5009114;28;20204;-63
2021/12/15 02:41:13;;;;;;;;;;;;;;;7.37;100.00;102898.63;5009728;28;20363;-62
2021/12/15 02:43:40;;;;;;;68.65;39.55;;;;;;;7.36;100.00;102900.31;5009052;28;19913;-62
2021/12/15 02:46:06;;;;;;;71.43;41.10;;;;;;;7.36;100.00;102900.31;5009226;28;20379;-63
2021/12/15 02:48:32;;;;;;;74.75;40.55;;;;;;;7.38;100.00;102900.41;5009130;28;20030;-62
2021/12/15 02:51:00;;;;;;;72.63;42.53;;;;;;;7.37;100.00;102901.22;5009582;28;20030;-61
2021/12/15 02:53:25;;;;;;;73.60;40.75;;;;;;;7.38;100.00;102898.75;5009466;28;20037;-61
2021/12/15 02:55:51;;;;;;;68.65;39.88;;;;;;;7.38;100.00;102901.34;5008931;28;20045;-62
2021/12/15 02:58:19;;;;;;;71.15;40.40;;;;;;;7.38;100.00;102896.16;5009865;28;20034;-62
2021/12/15 03:00:54;;;;;;;71.47;39.85;;;;;;;7.39;100.00;102898.00;5012964;28;20483;-62
2021/12/15 03:06:10;;;;;;;68.35;39.80;;;;;;;7.37;100.00;102891.81;5013413;28;20077;-62
2021/12/15 03:16:48;;;;;;;72.82;39.45;;;;;;;7.37;100.00;102894.38;5013501;28;20516;-63
2021/12/15 03:19:13;;;;;;;69.82;40.20;;;;;;;7.38;100.00;102895.25;5012583;28;20017;-62
2021/12/15 03:21:39;;;;;;;71.47;39.03;;;;;;;7.37;100.00;102886.66;5012739;28;20057;-61
2021/12/15 03:24:17;;;;;;;70.78;40.35;;;;;;;7.38;100.00;102893.59;5012994;28;20508;-62
2021/12/15 03:26:53;;;;;;;69.38;40.40;;;;;;;7.40;100.00;102888.56;5012856;28;20021;-62
2021/12/15 03:37:36;;;;;;;67.15;38.15;;;;;;;7.39;100.00;102887.69;5012258;28;20442;-62
2021/12/15 03:40:18;;;;;;;65.72;37.70;;;;;;;7.39;100.00;102886.75;5012122;28;20057;-61
2021/12/15 03:42:48;;;;;;;64.70;38.25;;;;;;;7.38;100.00;102888.44;5011712;28;21270;-63
2021/12/15 03:45:17;;;;;;;69.40;40.20;;;;;;;7.40;100.00;102898.88;5012304;28;20030;-62
2021/12/15 03:47:46;;;;;;;66.93;38.30;;;;;;;7.42;100.00;102892.16;5012353;28;20041;-61
2021/12/15 03:50:14;;;;;;;64.35;36.25;;;;;;;7.41;100.00;102896.41;5012129;28;20045;-61
2021/12/15 03:52:41;;;;;;;61.88;38.70;;;;;;;7.41;100.00;102896.41;5011939;28;20045;-62
2021/12/15 03:55:08;;;;;;;69.57;38.53;;;;;;;7.42;100.00;102897.31;5011923;28;20653;-62
2021/12/15 03:57:34;;;;;;;69.60;39.15;;;;;;;7.42;100.00;102908.53;5011755;28;20037;-63
2021/12/15 04:00:00;;;;;;;66.65;37.15;;;;;;;7.44;100.00;102901.81;5011550;28;20112;-62
2021/12/15 04:02:26;;;;;;;66.13;37.78;;;;;;;7.43;100.00;102896.53;5011988;28;20040;-61
2021/12/15 04:04:53;;;;;;;64.80;37.33;;;;;;;7.44;100.00;102901.81;5011720;28;20504;-63
2021/12/15 04:07:21;;;;;;;63.30;34.58;;;;;;;7.44;100.00;102907.00;5012454;28;20570;-62
2021/12/15 04:09:49;;;;;;;61.17;35.72;;;;;;;7.44;100.00;102909.56;5011502;28;20125;-63
2021/12/15 04:12:15;;;;;;;64.50;36.35;;;;;;;7.44;100.00;102907.00;5011087;28;20409;-62
2021/12/15 04:14:44;;;;;;;57.35;34.78;;;;;;;7.45;100.00;102913.03;5011676;28;20034;-63
2021/12/15 04:17:26;;;;;;;61.30;35.72;;;;;;;7.44;100.00;102901.81;5011780;28;20043;-61
2021/12/15 04:19:56;;;;;;;58.72;35.15;;;;;;;7.47;100.00;102910.56;5011495;28;20108;-62
2021/12/15 04:22:24;;;;;;;59.30;34.90;;;;;;;7.48;100.00;102913.28;5011228;28;20033;-62
2021/12/15 04:24:50;;;;;;;54.83;33.85;;;;;;;7.50;100.00;102905.66;5011082;28;20386;-63
2021/12/15 04:27:16;;;;;;;59.22;34.30;;;;;;;7.49;100.00;102911.59;5011318;28;20467;-62
2021/12/15 04:29:41;;;;;;;54.13;34.17;;;;;;;7.50;100.00;102918.56;5011298;28;20072;-62
2021/12/15 04:32:13;;;;;;;53.20;33.90;;;;;;;7.50;100.00;102916.84;5011020;28;20030;-62
2021/12/15 04:34:39;;;;;;;53.65;32.72;;;;;;;7.50;100.00;102918.56;5003452;28;20121;-62
2021/12/15 04:37:04;;;;;;;54.58;33.00;;;;;;;7.50;100.00;102924.59;5011644;28;20133;-62
2021/12/15 04:39:30;;;;;;;57.60;33.55;;;;;;;7.51;100.00;102913.53;5010563;28;20050;-62
2021/12/15 04:41:57;;;;;;;55.15;34.20;;;;;;;7.52;100.00;102922.16;5011443;28;20037;-63
2021/12/15 04:44:26;;;;;;;52.22;33.08;;;;;;;7.50;100.00;102916.84;5011987;28;20034;-62
2021/12/15 04:47:04;;;;;;;55.42;32.90;;;;;;;7.52;100.00;102928.22;5003616;28;20056;-62
2021/12/15 04:49:55;;;;;;;54.75;34.58;;;;;;;7.53;100.00;102931.69;5010610;28;20037;-62
2021/12/15 04:52:24;;;;;;;55.10;32.85;;;;;;;7.51;100.00;102925.50;5010594;28;20128;-63
2021/12/15 04:54:49;;;;;;;52.92;32.85;;;;;;;7.50;100.00;102927.19;5010773;28;20390;-62
2021/12/15 04:57:17;;;;;;;50.40;31.83;;;;;;;7.52;100.00;102929.91;5010814;28;20022;-62
2021/12/15 04:59:44;;;;;;;51.45;33.15;;;;;;;7.52;100.00;102930.78;5010365;28;20026;-63
2021/12/15 05:02:10;;;;;;;50.45;31.10;;;;;;;7.50;100.00;102924.59;5011021;28;20049;-62
2021/12/15 05:04:37;;;;;;;53.00;32.88;;;;;;;7.51;100.00;102938.41;5010904;28;20442;-62
2021/12/15 05:07:03;;;;;;;52.75;32.58;;;;;;;7.50;100.00;102936.63;5003379;28;20048;-62
2021/12/15 05:09:28;;;;;;;48.10;30.75;;;;;;;7.50;100.00;102937.50;5010724;28;20029;-63
2021/12/15 05:11:54;;;;;;;49.47;30.33;;;;;;;7.50;100.00;102937.50;5010483;28;20662;-62
2021/12/15 05:14:21;;;;;;;54.17;32.95;;;;;;;7.48;100.00;102941.66;5010838;28;20433;-62
2021/12/15 05:16:46;;;;;;;52.67;31.83;;;;;;;7.49;100.00;102939.97;5010556;28;20061;-62
2021/12/15 05:19:12;;;;;;;52.55;32.40;;;;;;;7.49;100.00;102937.38;5010668;28;20072;-62
2021/12/15 05:21:37;;;;;;;49.83;30.92;;;;;;;7.49;100.00;102945.13;5010178;28;20026;-63
2021/12/15 05:24:12;;;;;;;49.55;31.60;;;;;;;7.49;100.00;102937.38;5009946;28;20037;-62
2021/12/15 05:26:38;;;;;;;49.33;30.17;;;;;;;7.49;100.00;102946.03;5010606;28;20036;-62
2021/12/15 05:29:04;;;;;;;49.53;31.23;;;;;;;7.49;100.00;102951.19;5010706;28;20454;-62
2021/12/15 05:31:30;;;;;;;48.25;29.92;;;;;;;7.49;100.00;102960.59;5010339;28;20058;-61
2021/12/15 05:33:55;;;;;;;48.78;31.85;;;;;;;7.48;100.00;102954.56;5010269;28;20080;-63
2021/12/15 05:36:22;;;;;;;47.65;30.15;;;;;;;7.46;100.00;102945.81;5010538;28;20427;-62
2021/12/15 05:38:47;;;;;;;50.58;31.33;;;;;;;7.47;100.00;102949.25;5010176;28;20069;-63
2021/12/15 05:41:13;;;;;;;49.35;30.73;;;;;;;7.47;100.00;102952.75;5009400;28;20091;-61
2021/12/15 05:43:38;;;;;;;51.58;31.88;;;;;;;7.49;100.00;102956.34;5010010;28;20026;-61
2021/12/15 05:46:04;;;;;;;50.17;31.23;;;;;;;7.49;100.00;102956.34;5009639;28;20024;-63
2021/12/15 05:48:29;;;;;;;52.97;32.65;;;;;;;7.50;100.00;102958.13;5010015;28;20030;-62
2021/12/15 05:50:54;;;;;;;56.53;32.85;;;;;;;7.47;100.00;102946.69;5009227;28;20029;-62
2021/12/15 05:53:22;;;;;;;55.92;33.38;;;;;;;7.48;100.00;102949.41;5009402;28;20088;-63
2021/12/15 05:55:50;;;;;;;55.97;32.42;;;;;;;7.47;100.00;102952.75;5009956;28;20026;-62
2021/12/15 05:58:15;;;;;;;55.40;33.08;;;;;;;7.49;100.00;102950.28;5009429;28;20482;-63
2021/12/15 06:00:44;;;;;;;55.80;32.13;;;;;;;7.50;100.00;102952.09;5009297;28;20228;-60
2021/12/15 06:03:10;;;;;;;57.35;33.00;;;;;;;7.50;100.00;102952.09;5009672;28;20462;-63
2021/12/15 06:05:36;;;;;;;58.20;33.58;;;;;;;7.49;100.00;102956.34;5009879;28;20048;-63
2021/12/15 06:08:03;;;;;;;55.42;34.35;;;;;;;7.50;100.00;102952.09;5009676;28;20030;-62
2021/12/15 06:10:30;;;;;;;55.42;32.63;;;;;;;7.51;100.00;102959.06;5008518;28;20137;-61
2021/12/15 06:12:57;;;;;;;56.65;34.45;;;;;;;7.50;100.00;102962.44;5009381;28;20076;-62
2021/12/15 06:15:25;;;;;;;61.00;33.25;;;;;;;7.51;100.00;102959.06;5009099;28;20462;-62
2021/12/15 06:17:56;;;;;;;56.97;33.70;;;;;;;7.50;100.00;102965.88;5001456;28;20033;-62
2021/12/15 06:20:22;;;;;;;64.07;34.20;;;;;;;7.49;100.00;102956.34;5009097;28;20030;-62
2021/12/15 06:22:47;;;;;;;59.50;32.28;;;;;;;7.50;100.00;102958.13;5009379;28;20391;-61
2021/12/15 06:25:14;;;;;;;60.03;35.20;;;;;;;7.52;100.00;102968.59;5009269;28;20030;-62
2021/12/15 06:27:40;;;;;;;56.75;32.95;;;;;;;7.52;100.00;102960.88;5009420;28;20026;-62
2021/12/15 06:30:08;;;;;;;62.58;36.80;;;;;;;7.54;100.00;102964.44;5009697;28;20389;-63
2021/12/15 06:32:33;;;;;;;60.72;34.90;;;;;;;7.53;100.00;102972.97;5008966;28;20033;-62
2021/12/15 06:34:58;;;;;;;56.97;34.33;;;;;;;7.53;100.00;102967.81;5009048;28;20360;-63
2021/12/15 06:37:24;;;;;;;59.85;34.33;;;;;;;7.53;100.00;102967.81;5009174;28;20469;-62
2021/12/15 06:39:50;;;;;;;64.13;35.35;;;;;;;7.53;100.00;102975.56;5008568;28;20502;-63
2021/12/15 06:42:15;;;;;;;58.30;34.20;;;;;;;7.53;100.00;102978.13;5008956;28;20022;-63
2021/12/15 06:44:41;;;;;;;64.43;36.95;;;;;;;7.55;100.00;102979.16;5009508;28;20424;-62
2021/12/15 07:00:38;;;;;;;66.57;36.10;;;;;;;7.56;100.00;102988.69;5008992;28;20112;-63
2021/12/15 07:03:03;;;;;;;66.78;35.80;;;;;;;7.55;100.00;102987.81;5008624;28;20041;-62
2021/12/15 07:05:31;;;;;;;65.88;36.67;;;;;;;7.54;100.00;102983.41;5009087;28;20025;-63
2021/12/15 07:07:57;;;;;;;64.88;37.67;;;;;;;7.57;100.00;102990.50;5008434;28;20027;-63
2021/12/15 07:10:27;;;;;;;66.15;35.92;;;;;;;7.55;100.00;102987.81;5007321;28;20030;-61
2021/12/15 07:12:53;;;;;;;66.57;35.67;;;;;;;7.57;100.00;102993.97;5008637;28;20104;-60
2021/12/15 07:15:19;;;;;;;66.47;36.58;;;;;;;7.57;100.00;102995.69;5009104;28;20463;-60
2021/12/15 07:17:48;;;;;;;70.03;38.00;;;;;;;7.57;100.00;103006.00;5008402;28;20030;-62
2021/12/15 07:23:00;;;;;;;66.15;36.00;;;;;;;7.60;100.00;103002.75;5008874;28;20046;-61
2021/12/15 07:25:27;;;;;;;68.47;36.42;;;;;;;7.59;100.00;103004.41;5008085;28;20062;-62
2021/12/15 07:27:54;;;;;;;69.45;37.97;;;;;;;7.59;100.00;103003.53;5006509;28;20176;-62
2021/12/15 07:30:20;;;;;;;70.57;35.97;;;;;;;7.60;100.00;103007.91;5004771;28;20057;-63
2021/12/15 07:32:45;;;;;;;75.47;39.50;;;;;;;7.59;100.00;103014.72;5006855;28;20026;-62
2021/12/15 07:35:12;;;;;;;71.70;38.33;;;;;;;7.60;100.00;103015.63;5001407;28;20127;-61
2021/12/15 07:37:38;;;;;;;75.20;38.67;;;;;;;7.58;100.00;103010.38;5001121;28;20058;-62
2021/12/15 07:40:10;;;;;;;73.30;38.17;;;;;;;7.60;100.00;103003.66;4996269;28;20510;-61
2021/12/15 07:42:42;;;;;;;69.75;37.78;;;;;;;7.60;100.00;103008.81;5004807;28;20030;-63
2021/12/15 07:45:10;;;;;;;76.40;37.65;;;;;;;7.61;100.00;103010.59;5003241;28;20021;-61
2021/12/15 07:47:36;;;;;;;74.18;39.60;;;;;;;7.61;100.00;103013.19;5010202;28;20057;-63
2021/12/15 07:50:03;;;;;;;78.53;39.80;;;;;;;7.61;100.00;103017.47;5010260;28;20064;-62
2021/12/15 07:52:29;;;;;;;74.90;39.97;;;;;;;7.60;100.00;103013.06;5009424;28;20037;-62
2021/12/15 07:54:55;;;;;;;76.28;38.63;;;;;;;7.60;100.00;103013.97;5005546;28;20026;-62
2021/12/15 07:57:22;;;;;;;73.30;38.88;;;;;;;7.62;100.00;103019.25;5004592;28;20117;-61
2021/12/15 07:59:48;;;;;;;71.43;39.20;;;;;;;7.59;100.00;103019.88;5006454;28;20026;-62
2021/12/15 08:02:13;;;;;;;82.63;41.05;;;;;;;7.62;100.00;103017.59;5007451;28;20036;-62
2021/12/15 08:04:39;;;;;;;76.18;38.97;;;;;;;7.61;100.00;103020.91;5009091;28;20037;-63
2021/12/15 08:07:05;;;;;;;81.25;40.55;;;;;;;7.62;100.00;103022.75;4992815;28;20272;-62
2021/12/15 08:09:30;;;;;;;80.15;39.80;;;;;;;7.64;100.00;103020.28;4998342;28;20030;-61
2021/12/15 08:11:56;;;;;;;73.88;39.35;;;;;;;7.65;100.00;103024.66;5007797;28;20504;-63
2021/12/15 08:14:21;;;;;;;81.38;40.25;;;;;;;7.66;100.00;103031.63;5004317;28;20041;-61
2021/12/15 08:16:47;;;;;;;83.70;40.92;;;;;;;7.64;100.00;103028.94;5007079;28;20462;-62
2021/12/15 08:19:15;;;;;;;77.90;40.45;;;;;;;7.65;100.00;103043.63;5007694;28;20022;-62
2021/12/15 08:21:42;;;;;;;84.75;40.60;;;;;;;7.64;100.00;103028.94;5010746;28;20057;-61
2021/12/15 08:24:07;;;;;;;81.55;41.72;;;;;;;7.66;100.00;103029.94;5004822;28;20750;-61
2021/12/15 08:26:33;;;;;;;79.47;39.03;;;;;;;7.63;100.00;103029.69;5009979;28;20108;-60
2021/12/15 08:28:58;;;;;;;78.60;42.10;;;;;;;7.66;100.00;103034.22;5007243;28;20041;-62
2021/12/15 08:31:24;;;;;;;84.53;40.90;;;;;;;7.67;100.00;103026.59;5009293;28;20493;-62
2021/12/15 08:33:49;;;;;;;80.25;43.20;;;;;;;7.67;100.00;103043.75;5008285;28;20021;-60
2021/12/15 08:36:15;;;;;;;80.38;41.53;;;;;;;7.68;100.00;103038.69;5008840;28;20109;-62
2021/12/15 08:38:44;;;;;;;77.32;40.33;;;;;;;7.69;100.00;103030.19;5007703;28;20018;-62
2021/12/15 08:41:13;;;;;;;84.70;42.58;;;;;;;7.68;100.00;103030.94;5008000;28;20037;-62
2021/12/15 08:43:39;;;;;;;80.80;41.33;;;;;;;7.71;100.00;103030.31;5008365;28;20026;-61
2021/12/15 08:46:08;;;;;;;81.65;42.75;;;;;;;7.73;100.00;103038.16;5010572;28;20021;-62
2021/12/15 08:48:35;;;;;;;81.93;42.60;;;;;;;7.73;100.00;103043.31;5008858;28;20026;-62
2021/12/15 08:51:02;;;;;;;82.70;43.10;;;;;;;7.74;100.00;103030.53;5008142;28;20440;-63
2021/12/15 08:53:28;;;;;;;80.45;43.25;;;;;;;7.76;100.00;103038.41;5007180;28;20033;-62
2021/12/15 08:55:54;;;;;;;78.20;43.63;;;;;;;7.77;100.00;103042.81;5009886;28;20026;-62
2021/12/15 08:58:21;;;;;;;72.38;41.20;;;;;;;7.77;100.00;103035.94;5004679;28;20025;-61
2021/12/15 09:00:50;;;;;;;78.72;41.97;;;;;;;7.77;100.00;103035.94;5001772;28;20045;-62
2021/12/15 09:03:18;;;;;;;71.82;40.60;;;;;;;7.79;100.00;103043.78;4998394;28;20060;-63
2021/12/15 09:05:44;;;;;;;80.25;41.97;;;;;;;7.79;100.00;103041.22;4997035;28;20037;-62
2021/12/15 09:08:12;;;;;;;76.45;40.92;;;;;;;7.80;100.00;103043.94;5003647;28;20482;-64
2021/12/15 09:10:40;;;;;;;71.80;38.80;;;;;;;7.83;100.00;103050.09;5004156;28;20032;-62
2021/12/15 09:13:07;;;;;;;74.15;43.70;;;;;;;7.83;100.00;103048.44;5003063;28;20750;-62
2021/12/15 09:15:33;;;;;;;77.88;41.40;;;;;;;7.85;100.00;103046.88;5004434;28;20110;-61
2021/12/15 09:17:58;;;;;;;74.38;40.72;;;;;;;7.87;100.00;103053.06;5001423;28;20117;-63
2021/12/15 09:20:27;;;;;;;68.97;40.80;;;;;;;7.88;100.00;103061.72;5009373;28;20455;-62
2021/12/15 09:22:53;;;;;;;67.50;38.25;;;;;;;7.89;100.00;103054.09;5005349;28;20025;-61
2021/12/15 09:25:19;;;;;;;72.63;42.10;;;;;;;7.87;100.00;103058.22;5004600;28;20107;-62
2021/12/15 09:27:46;;;;;;;75.82;41.55;;;;;;;7.91;100.00;103064.53;5006299;28;20751;-61
2021/12/15 09:30:20;;;;;;;66.60;38.85;;;;;;;7.92;100.00;103069.81;4998833;28;20033;-62
2021/12/15 09:32:46;;;;;;;66.43;38.85;;;;;;;7.95;100.00;103076.00;4999439;28;20112;-62
2021/12/15 09:35:13;;;;;;;73.10;41.67;;;;;;;7.94;100.00;103075.09;4996923;28;20022;-61
2021/12/15 09:37:39;;;;;;;70.05;39.42;;;;;;;7.94;100.00;103064.78;4994646;28;20073;-61
2021/12/15 09:40:08;;;;;;;68.78;38.60;;;;;;;7.98;100.00;103071.06;5002461;28;20130;-62
2021/12/15 09:42:37;;;;;;;69.20;41.08;;;;;;;7.99;100.00;103065.13;5008343;28;20536;-62
2021/12/15 09:45:25;;;;;;;64.53;38.65;;;;;;;8.00;100.00;103074.69;5006034;28;20030;-60
2021/12/15 10:06:47;;;;;;;62.53;40.13;;;;;;;8.13;100.00;103080.00;5004335;28;20133;-63
2021/12/15 10:20:00;;;;;;;62.30;40.83;;;;;;;8.25;100.00;103079.19;5001356;28;20042;-62
2021/12/15 10:22:45;;;;;;;66.45;40.05;;;;;;;8.26;100.00;103079.28;5007069;28;20068;-63
2021/12/15 10:25:28;;;;;;;59.15;38.65;;;;;;;8.30;100.00;103085.59;5007909;28;20025;-63
2021/12/15 10:28:01;;;;;;;64.40;38.60;;;;;;;8.33;100.00;103083.25;5004313;28;20053;-63
2021/12/15 10:30:33;;;;;;;63.05;40.50;;;;;;;8.36;100.00;103083.50;5006405;28;20037;-62
2021/12/15 10:33:17;;;;;;;59.35;39.70;;;;;;;8.39;100.00;103075.97;4997162;28;20498;-62
2021/12/15 10:35:49;;;;;;;59.35;38.88;;;;;;;8.44;100.00;103078.03;5004365;28;20030;-62
2021/12/15 10:38:31;;;;;;;61.17;40.90;;;;;;;8.49;100.00;103076.69;5003811;28;20099;-62
2021/12/15 10:40:59;;;;;;;58.47;39.33;;;;;;;8.52;100.00;103080.41;5007886;28;20037;-62
2021/12/15 10:43:42;;;;;;;59.83;39.70;;;;;;;8.52;100.00;103076.91;5008690;28;20066;-62
2021/12/15 10:46:14;;;;;;;54.15;37.90;;;;;;;8.57;100.00;103082.47;5006881;28;20030;-62
2021/12/15 10:49:06;;;;;;;57.78;39.92;;;;;;;8.57;100.00;103085.97;5007280;28;20021;-63
2021/12/15 10:51:37;;;;;;;57.47;38.85;;;;;;;8.58;100.00;103085.16;5008820;28;20037;-64
2021/12/15 10:54:16;;;;;;;57.05;40.25;;;;;;;8.61;100.00;103084.50;5001637;28;20030;-63
2021/12/15 10:56:48;;;;;;;60.50;42.05;;;;;;;8.61;100.00;103088.00;5003580;28;20053;-63
2021/12/15 10:59:14;;;;;;;61.00;41.78;;;;;;;8.62;100.00;103084.63;4999533;28;20815;-62
2021/12/15 11:01:42;;;;;;;56.85;41.17;;;;;;;8.65;100.00;103095.19;5008724;28;20036;-63
2021/12/15 11:04:19;;;;;;;55.38;38.95;;;;;;;8.65;100.00;103089.13;5007475;28;20100;-63
2021/12/15 11:06:45;;;;;;;55.78;41.13;;;;;;;8.68;100.00;103093.63;5008255;28;20022;-63
2021/12/15 11:09:16;;;;;;;52.53;38.42;;;;;;;8.68;100.00;103081.59;5006709;28;20264;-61
2021/12/15 11:12:15;;;;;;;59.47;41.97;;;;;;;8.68;100.00;103086.78;5006120;28;20026;-63
2021/12/15 11:14:42;;;;;;;56.97;39.60;;;;;;;8.71;100.00;103087.00;5006002;28;20137;-63
2021/12/15 11:17:11;;;;;;;57.47;40.22;;;;;;;8.69;100.00;103078.22;5006074;28;20276;-64
2021/12/15 11:19:43;;;;;;;58.63;41.72;;;;;;;8.70;100.00;103079.13;5008157;28;20037;-63
2021/12/15 11:22:46;;;;;;;59.33;41.63;;;;;;;8.71;100.00;103078.34;5010610;28;20426;-63
2021/12/15 11:25:49;;;;;;;55.63;40.83;;;;;;;8.73;100.00;103082.84;5008678;28;20026;-63
2021/12/15 11:28:14;;;;;;;57.90;39.53;;;;;;;8.74;100.00;103079.47;5007923;28;20034;-63
2021/12/15 11:30:48;;;;;;;59.65;42.63;;;;;;;8.74;100.00;103079.47;5008606;28;20113;-64
2021/12/15 11:33:18;;;;;;;54.38;40.55;;;;;;;8.77;100.00;103077.13;5011036;28;20034;-64
2021/12/15 11:35:46;;;;;;;53.63;40.47;;;;;;;8.79;100.00;103077.25;5008565;28;20044;-64
2021/12/15 11:38:22;;;;;;;57.60;41.38;;;;;;;8.81;100.00;103075.69;5009498;28;20084;-63
2021/12/15 11:41:14;;;;;;;59.45;42.78;;;;;;;8.85;100.00;103071.66;5006865;28;20050;-63
2021/12/15 11:43:42;;;;;;;57.10;41.45;;;;;;;8.85;100.00;103069.94;5010521;28;20171;-64
2021/12/15 11:46:27;;;;;;;53.22;40.05;;;;;;;8.87;100.00;103072.63;5009954;28;20496;-64
2021/12/15 11:49:01;;;;;;;52.38;40.08;;;;;;;8.88;100.00;103065.03;5007066;28;20437;-63
2021/12/15 11:51:30;;;;;;;55.13;39.92;;;;;;;8.89;100.00;103071.97;5010907;28;20447;-64
2021/12/15 11:53:56;;;;;;;47.10;38.72;;;;;;;8.92;100.00;103073.00;5010066;28;20054;-63
2021/12/15 11:56:34;;;;;;;52.80;39.78;;;;;;;8.95;100.00;103074.13;5008985;28;20073;-62
2021/12/15 11:59:15;;;;;;;51.45;38.65;;;;;;;8.96;100.00;103069.88;5008499;28;20052;-64
2021/12/15 12:01:43;;;;;;;47.08;36.90;;;;;;;8.97;100.00;103069.06;5010260;28;20030;-63
2021/12/15 12:04:16;;;;;;;45.47;36.55;;;;;;;9.00;100.00;103066.69;5009620;28;20506;-63
2021/12/15 12:06:42;;;;;;;47.05;36.95;;;;;;;9.01;100.00;103069.41;5006764;28;20038;-64
2021/12/15 12:09:08;;;;;;;44.53;36.10;;;;;;;9.01;100.00;103073.69;5007955;28;20021;-64
2021/12/15 12:11:34;;;;;;;47.40;36.90;;;;;;;9.01;100.00;103068.53;5009499;28;20498;-63
2021/12/15 12:14:00;;;;;;;45.33;37.33;;;;;;;9.01;100.00;103058.16;5005656;28;20036;-64
2021/12/15 12:16:26;;;;;;;45.15;35.38;;;;;;;8.99;100.00;103050.28;5008244;28;20045;-64
2021/12/15 12:18:53;;;;;;;45.08;36.25;;;;;;;9.01;100.00;103053.00;5008816;28;20030;-63
2021/12/15 12:21:20;;;;;;;43.65;34.55;;;;;;;9.02;100.00;103054.78;5006182;28;20466;-64
2021/12/15 12:23:49;;;;;;;44.13;35.33;;;;;;;9.07;100.00;103058.59;5008281;28;20041;-64
2021/12/15 12:26:16;;;;;;;41.30;34.83;;;;;;;9.07;100.00;103058.59;5010121;28;20474;-64
2021/12/15 12:28:45;;;;;;;45.00;36.45;;;;;;;9.09;100.00;103056.13;5009451;28;20116;-64
2021/12/15 12:31:16;;;;;;;43.28;36.50;;;;;;;9.09;100.00;103046.69;5008969;28;20029;-64
2021/12/15 12:33:42;;;;;;;42.75;34.50;;;;;;;9.07;100.00;103048.25;5009846;28;20468;-63
2021/12/15 12:36:17;;;;;;;41.00;35.40;;;;;;;9.08;100.00;103047.50;4995528;28;20027;-63
2021/12/15 12:39:06;;;;;;;44.35;35.40;;;;;;;9.09;100.00;103053.53;5008197;28;20064;-64
2021/12/15 12:41:39;;;;;;;43.83;34.13;;;;;;;9.09;100.00;103049.28;5006642;28;20037;-63